Time;durP1;ratioP1;P1;durP2;ratioP2;P2;SDS_P1;SDS_P2;PMS_P1;PMS_P2;Temp;Humidity;BMP_temperature;BMP_pressure;BME280_temperature;BME280_humidity;BME280_pressure;Samples;Min_cycle;Max_cycle;Signal;HPM_P1;HPM_P2
2022/10/31 17:52:19;;;;;;;13.52;6.45;;;;;;;;;;5057024;28;20451;-75
2022/10/31 17:54:44;;;;;;;13.38;7.10;;;;;;;;;;5055364;28;20335;-76
2022/10/31 17:57:10;;;;;;;18.50;7.13;;;;;;;;;;5056470;28;20318;-75
2022/10/31 17:59:35;;;;;;;16.40;7.18;;;;;;;;;;5054227;28;20028;-76
2022/10/31 18:02:01;;;;;;;13.75;6.75;;;;;;;;;;5051219;28;20025;-76
2022/10/31 18:04:27;;;;;;;19.92;7.90;;;;;;;;;;5052096;28;20029;-76
2022/10/31 18:06:53;;;;;;;16.30;7.22;;;;;;;;;;5049682;28;20033;-75
2022/10/31 18:09:18;;;;;;;16.75;7.47;;;;;;;;;;5052379;28;20029;-75
2022/10/31 18:11:44;;;;;;;19.63;7.28;;;;;;;;;;5043963;28;20031;-75
2022/10/31 18:14:09;;;;;;;16.92;6.75;;;;;;;;;;5047412;28;20052;-76
2022/10/31 18:16:35;;;;;;;19.63;7.80;;;;;;;;;;5044362;28;20275;-75
2022/10/31 18:19:01;;;;;;;19.25;7.15;;;;;;;;;;5048021;28;20036;-75
2022/10/31 18:21:27;;;;;;;19.40;7.15;;;;;;;;;;5045264;28;20325;-76
2022/10/31 18:23:54;;;;;;;17.23;7.05;;;;;;;;;;5048241;28;20041;-75
2022/10/31 18:26:21;;;;;;;16.75;6.75;;;;;;;;;;5044178;28;20029;-76
2022/10/31 18:28:46;;;;;;;15.45;6.82;;;;;;;;;;5049351;28;20041;-76
2022/10/31 18:31:11;;;;;;;16.75;6.38;;;;;;;;;;5041620;28;20088;-76
2022/10/31 18:33:37;;;;;;;16.02;6.88;;;;;;;;;;5044008;28;20026;-75
2022/10/31 18:36:06;;;;;;;17.65;6.53;;;;;;;;;;5044343;28;20041;-75
2022/10/31 18:38:32;;;;;;;17.27;5.60;;;;;;;;;;5042672;28;20029;-74
2022/10/31 18:40:57;;;;;;;16.92;6.43;;;;;;;;;;5046563;28;20021;-76
2022/10/31 18:43:23;;;;;;;16.33;6.57;;;;;;;;;;5043342;28;20067;-74
2022/10/31 18:45:48;;;;;;;14.07;5.78;;;;;;;;;;5047482;28;20030;-75
2022/10/31 18:48:15;;;;;;;11.68;6.15;;;;;;;;;;5042127;28;20045;-75
2022/10/31 18:50:40;;;;;;;13.25;6.00;;;;;;;;;;5039351;28;20072;-74
2022/10/31 18:53:06;;;;;;;12.55;5.22;;;;;;;;;;5043150;28;20033;-74
2022/10/31 18:55:31;;;;;;;14.35;5.07;;;;;;;;;;5042470;28;20025;-75
2022/10/31 18:57:57;;;;;;;11.98;5.30;;;;;;;;;;5043043;28;20028;-75
2022/10/31 19:00:22;;;;;;;12.27;4.90;;;;;;;;;;5046431;28;20033;-74
2022/10/31 19:02:47;;;;;;;10.25;5.22;;;;;;;;;;5041605;28;20033;-75
2022/10/31 19:05:13;;;;;;;13.57;4.57;;;;;;;;;;5028658;28;20026;-74
2022/10/31 19:07:38;;;;;;;9.30;4.90;;;;;;;;;;5029294;28;20025;-74
2022/10/31 19:10:04;;;;;;;9.57;4.60;;;;;;;;;;5032628;28;20108;-75
2022/10/31 19:12:31;;;;;;;11.35;5.10;;;;;;;;;;5034969;28;20033;-74
2022/10/31 19:14:57;;;;;;;10.00;4.43;;;;;;;;;;5039829;28;20442;-74
2022/10/31 19:17:25;;;;;;;9.88;4.63;;;;;;;;;;5038488;28;20049;-75
2022/10/31 19:19:50;;;;;;;11.20;4.90;;;;;;;;;;5045601;28;20377;-74
2022/10/31 19:22:16;;;;;;;12.05;4.72;;;;;;;;;;5043122;28;20033;-75
2022/10/31 19:24:41;;;;;;;13.88;5.88;;;;;;;;;;5042228;28;20045;-74
2022/10/31 19:27:08;;;;;;;12.55;4.95;;;;;;;;;;5038491;28;20281;-75
2022/10/31 19:29:34;;;;;;;11.20;4.80;;;;;;;;;;5037273;28;20036;-75
2022/10/31 19:31:59;;;;;;;15.23;5.57;;;;;;;;;;5036075;28;20029;-74
2022/10/31 19:34:24;;;;;;;12.80;4.72;;;;;;;;;;5040759;28;20029;-74
